TRA2605 EHEH-LGSA
Flight info
| Callsign | TRA2605 |
|---|---|
| Flight time | 3h 7m |
| Altitude | 37000 |
| Route | LNO N852 DIK M150 GEBDA Y173 PABLA Z721 UTABA L607 ELMEM N606 OTRES T307 DIRAB DCT ROTAR DCT MADOS DCT EBELA DCT PITAS UN732 KRK UA14 ARA UL612 TRL UJ65 SOKRI |
| Aircraft | B738/M-SDE2E3FGHIRWXY/LB1 |
Departure
| Time | 2026-04-27 03:35 |
|---|---|
| Airport | Eindhoven Airport (EHEH) |
Arrival
| Time | 2026-04-27 06:43 |
|---|---|
| Airport | Chania International Airport (LGSA) |
| Time | Latitude | Longitude | Altitude | Speed | Heading |
|---|---|---|---|---|---|
| 2026-04-27 03:13 | 51.45789 | 5.38973 | 70 ft | 0 kts | 125° |
| 2026-04-27 03:30 | 51.45795 | 5.38959 | 63 ft | 6 kts | 125° |
| 2026-04-27 03:30 | 51.45818 | 5.38905 | 63 ft | 6 kts | 135° |
| 2026-04-27 03:31 | 51.45847 | 5.38890 | 68 ft | 0 kts | 217° |
| 2026-04-27 03:32 | 51.45830 | 5.38869 | 66 ft | 14 kts | 217° |
| 2026-04-27 03:32 | 51.45812 | 5.38731 | 66 ft | 17 kts | 307° |
| 2026-04-27 03:32 | 51.45902 | 5.38529 | 69 ft | 27 kts | 305° |
| 2026-04-27 03:32 | 51.45975 | 5.38273 | 72 ft | 26 kts | 242° |
| 2026-04-27 03:33 | 51.45833 | 5.38091 | 65 ft | 28 kts | 215° |
| 2026-04-27 03:33 | 51.45677 | 5.37916 | 68 ft | 27 kts | 215° |
| 2026-04-27 03:33 | 51.45529 | 5.37750 | 70 ft | 27 kts | 215° |
| 2026-04-27 03:33 | 51.45372 | 5.37573 | 68 ft | 27 kts | 215° |
| 2026-04-27 03:34 | 51.45224 | 5.37407 | 72 ft | 25 kts | 215° |
| 2026-04-27 03:34 | 51.45068 | 5.37232 | 70 ft | 27 kts | 215° |
| 2026-04-27 03:34 | 51.44916 | 5.37063 | 67 ft | 26 kts | 214° |
| 2026-04-27 03:34 | 51.44772 | 5.37011 | 67 ft | 16 kts | 140° |
| 2026-04-27 03:35 | 51.44772 | 5.37193 | 74 ft | 30 kts | 34° |
| 2026-04-27 03:35 | 51.45202 | 5.37662 | 66 ft | 115 kts | 34° |
| 2026-04-27 03:35 | 51.46043 | 5.38589 | 192 ft | 170 kts | 35° |
| 2026-04-27 03:35 | 51.47044 | 5.39761 | 836 ft | 192 kts | 36° |
| 2026-04-27 03:36 | 51.48200 | 5.41061 | 1492 ft | 210 kts | 36° |
| 2026-04-27 03:36 | 51.49417 | 5.42424 | 2275 ft | 216 kts | 35° |
| 2026-04-27 03:36 | 51.50640 | 5.43828 | 2962 ft | 219 kts | 43° |
| 2026-04-27 03:36 | 51.51417 | 5.45920 | 3556 ft | 225 kts | 77° |
| 2026-04-27 03:37 | 51.51351 | 5.48432 | 4225 ft | 230 kts | 103° |
| 2026-04-27 03:37 | 51.50880 | 5.50906 | 5071 ft | 232 kts | 108° |
| 2026-04-27 03:37 | 51.50359 | 5.53363 | 5882 ft | 235 kts | 108° |
| 2026-04-27 03:37 | 51.49828 | 5.55884 | 6649 ft | 241 kts | 108° |
| 2026-04-27 03:38 | 51.49314 | 5.58469 | 7330 ft | 248 kts | 104° |
| 2026-04-27 03:38 | 51.48903 | 5.61312 | 7611 ft | 273 kts | 101° |
| 2026-04-27 03:38 | 51.48448 | 5.64287 | 8192 ft | 284 kts | 112° |
| 2026-04-27 03:38 | 51.47245 | 5.66784 | 8979 ft | 286 kts | 142° |
| 2026-04-27 03:39 | 51.45610 | 5.68630 | 9814 ft | 291 kts | 147° |
| 2026-04-27 03:39 | 51.43898 | 5.70409 | 10557 ft | 296 kts | 148° |
| 2026-04-27 03:39 | 51.42108 | 5.72248 | 10860 ft | 318 kts | 148° |
| 2026-04-27 03:39 | 51.40179 | 5.74239 | 11082 ft | 340 kts | 147° |
| 2026-04-27 03:40 | 51.38161 | 5.76340 | 11602 ft | 350 kts | 147° |
| 2026-04-27 03:40 | 51.36109 | 5.78489 | 12315 ft | 354 kts | 148° |
| 2026-04-27 03:40 | 51.34035 | 5.80664 | 13060 ft | 358 kts | 147° |
| 2026-04-27 03:40 | 51.31940 | 5.82869 | 13756 ft | 363 kts | 147° |
| 2026-04-27 03:41 | 51.29810 | 5.85108 | 14412 ft | 369 kts | 148° |
| 2026-04-27 03:41 | 51.27659 | 5.87366 | 15103 ft | 371 kts | 148° |
| 2026-04-27 03:41 | 51.25471 | 5.89556 | 15789 ft | 372 kts | 155° |
| 2026-04-27 03:41 | 51.23061 | 5.90726 | 16411 ft | 372 kts | 174° |
| 2026-04-27 03:42 | 51.20494 | 5.91227 | 17137 ft | 373 kts | 175° |
| 2026-04-27 03:42 | 51.17905 | 5.91715 | 17771 ft | 377 kts | 175° |
| 2026-04-27 03:42 | 51.15284 | 5.92235 | 18393 ft | 381 kts | 175° |
| 2026-04-27 03:42 | 51.12648 | 5.92783 | 18972 ft | 384 kts | 175° |
| 2026-04-27 03:43 | 51.09979 | 5.93255 | 19517 ft | 386 kts | 181° |
| 2026-04-27 03:43 | 51.07338 | 5.92633 | 19999 ft | 385 kts | 198° |
| 2026-04-27 03:43 | 51.04753 | 5.91461 | 20553 ft | 388 kts | 199° |
| 2026-04-27 03:43 | 51.02151 | 5.90253 | 21058 ft | 392 kts | 199° |
| 2026-04-27 03:44 | 50.99520 | 5.89039 | 21577 ft | 396 kts | 199° |
| 2026-04-27 03:44 | 50.96864 | 5.87827 | 22076 ft | 399 kts | 199° |
| 2026-04-27 03:44 | 50.94182 | 5.86621 | 22580 ft | 402 kts | 199° |
| 2026-04-27 03:44 | 50.91470 | 5.85416 | 23064 ft | 406 kts | 198° |
| 2026-04-27 03:45 | 50.88737 | 5.84208 | 23550 ft | 409 kts | 198° |
| 2026-04-27 03:45 | 50.85982 | 5.82992 | 24008 ft | 412 kts | 199° |
| 2026-04-27 03:45 | 50.83212 | 5.81772 | 24410 ft | 415 kts | 199° |
| 2026-04-27 03:45 | 50.80419 | 5.80544 | 24822 ft | 418 kts | 199° |
| 2026-04-27 03:46 | 50.77613 | 5.79312 | 25222 ft | 420 kts | 199° |
| 2026-04-27 03:46 | 50.74788 | 5.78073 | 25616 ft | 423 kts | 199° |
| 2026-04-27 03:46 | 50.71947 | 5.76828 | 26006 ft | 425 kts | 199° |
| 2026-04-27 03:46 | 50.69085 | 5.75576 | 26393 ft | 428 kts | 199° |
| 2026-04-27 03:47 | 50.66209 | 5.74319 | 26751 ft | 430 kts | 199° |
| 2026-04-27 03:47 | 50.63355 | 5.73072 | 27119 ft | 433 kts | 199° |
| 2026-04-27 03:47 | 50.60425 | 5.71898 | 27451 ft | 438 kts | 191° |
| 2026-04-27 03:47 | 50.57353 | 5.71859 | 27766 ft | 448 kts | 173° |
| 2026-04-27 03:48 | 50.54337 | 5.73230 | 28135 ft | 454 kts | 162° |
| 2026-04-27 03:48 | 50.51374 | 5.74991 | 28482 ft | 457 kts | 161° |
| 2026-04-27 03:48 | 50.48404 | 5.76814 | 28762 ft | 460 kts | 161° |
| 2026-04-27 03:48 | 50.45411 | 5.78647 | 29069 ft | 463 kts | 161° |
| 2026-04-27 03:49 | 50.42399 | 5.80463 | 29385 ft | 465 kts | 161° |
| 2026-04-27 03:49 | 50.39365 | 5.82264 | 29689 ft | 467 kts | 162° |
| 2026-04-27 03:49 | 50.36317 | 5.84051 | 29983 ft | 469 kts | 162° |
| 2026-04-27 03:49 | 50.33252 | 5.85837 | 30279 ft | 471 kts | 162° |
| 2026-04-27 03:50 | 50.30169 | 5.87625 | 30507 ft | 474 kts | 162° |
| 2026-04-27 03:50 | 50.27075 | 5.89418 | 30764 ft | 475 kts | 162° |
| 2026-04-27 03:50 | 50.23976 | 5.91214 | 31100 ft | 474 kts | 162° |
| 2026-04-27 03:50 | 50.20885 | 5.93004 | 31460 ft | 473 kts | 162° |
| 2026-04-27 03:51 | 50.17803 | 5.94787 | 31783 ft | 473 kts | 162° |
| 2026-04-27 03:51 | 50.14714 | 5.96572 | 32057 ft | 474 kts | 162° |
| 2026-04-27 03:51 | 50.11624 | 5.98354 | 32347 ft | 474 kts | 162° |
| 2026-04-27 03:51 | 50.08535 | 6.00133 | 32683 ft | 473 kts | 162° |
| 2026-04-27 03:52 | 50.05453 | 6.01907 | 32970 ft | 473 kts | 162° |
| 2026-04-27 03:52 | 50.02364 | 6.03685 | 33239 ft | 473 kts | 162° |
| 2026-04-27 03:52 | 49.99278 | 6.05460 | 33525 ft | 473 kts | 162° |
| 2026-04-27 03:52 | 49.96191 | 6.07233 | 33810 ft | 473 kts | 162° |
| 2026-04-27 03:53 | 49.93099 | 6.09004 | 34080 ft | 473 kts | 162° |
| 2026-04-27 03:53 | 49.90025 | 6.10830 | 34321 ft | 474 kts | 156° |
| 2026-04-27 03:53 | 49.87210 | 6.13497 | 34556 ft | 477 kts | 141° |
| 2026-04-27 03:53 | 49.84847 | 6.17092 | 34832 ft | 476 kts | 128° |
| 2026-04-27 03:54 | 49.83077 | 6.21330 | 35066 ft | 475 kts | 117° |
| 2026-04-27 03:54 | 49.82060 | 6.24408 | 35229 ft | 475 kts | 116° |
| 2026-04-27 03:54 | 49.80110 | 6.30466 | 35497 ft | 475 kts | 116° |
| 2026-04-27 03:54 | 49.79107 | 6.33550 | 35636 ft | 475 kts | 116° |
| 2026-04-27 03:55 | 49.77598 | 6.38103 | 35872 ft | 475 kts | 117° |
| 2026-04-27 03:55 | 49.76072 | 6.42620 | 36118 ft | 474 kts | 117° |
| 2026-04-27 03:55 | 49.74038 | 6.48577 | 36442 ft | 472 kts | 117° |
| 2026-04-27 03:55 | 49.73001 | 6.51605 | 36612 ft | 471 kts | 117° |
| 2026-04-27 03:56 | 49.71467 | 6.56076 | 36815 ft | 471 kts | 117° |
| 2026-04-27 03:56 | 49.69931 | 6.60542 | 36996 ft | 471 kts | 117° |
| 2026-04-27 03:56 | 49.68391 | 6.65013 | 37193 ft | 471 kts | 117° |
| 2026-04-27 03:57 | 49.65298 | 6.73976 | 37215 ft | 473 kts | 117° |
| 2026-04-27 03:57 | 49.62206 | 6.82908 | 37204 ft | 470 kts | 117° |
| 2026-04-27 03:58 | 49.59132 | 6.91759 | 37209 ft | 467 kts | 117° |
| 2026-04-27 03:58 | 49.56092 | 7.00483 | 37216 ft | 464 kts | 117° |
| 2026-04-27 03:59 | 49.53038 | 7.09215 | 37223 ft | 463 kts | 118° |
| 2026-04-27 03:59 | 49.49978 | 7.17935 | 37233 ft | 463 kts | 118° |
| 2026-04-27 04:00 | 49.46910 | 7.26652 | 37237 ft | 465 kts | 118° |
| 2026-04-27 04:00 | 49.43818 | 7.35404 | 37239 ft | 467 kts | 118° |
| 2026-04-27 04:01 | 49.40707 | 7.44180 | 37242 ft | 469 kts | 118° |
| 2026-04-27 04:01 | 49.37571 | 7.52998 | 37238 ft | 472 kts | 118° |
| 2026-04-27 04:02 | 49.34415 | 7.61842 | 37228 ft | 473 kts | 118° |
| 2026-04-27 04:02 | 49.31265 | 7.70642 | 37228 ft | 469 kts | 118° |
| 2026-04-27 04:03 | 49.28133 | 7.79364 | 37228 ft | 466 kts | 118° |
| 2026-04-27 04:03 | 49.25017 | 7.88021 | 37224 ft | 463 kts | 118° |
| 2026-04-27 04:04 | 49.21923 | 7.96643 | 37232 ft | 461 kts | 118° |
| 2026-04-27 04:04 | 49.18831 | 8.05238 | 37230 ft | 462 kts | 118° |
| 2026-04-27 04:05 | 49.15725 | 8.13845 | 37229 ft | 463 kts | 118° |
| 2026-04-27 04:05 | 49.12582 | 8.22443 | 37220 ft | 465 kts | 123° |
| 2026-04-27 04:05 | 49.10454 | 8.26129 | 37221 ft | 464 kts | 143° |
| 2026-04-27 04:06 | 49.07739 | 8.28736 | 37216 ft | 462 kts | 158° |
| 2026-04-27 04:06 | 49.04683 | 8.30144 | 37228 ft | 458 kts | 174° |
| 2026-04-27 04:06 | 49.01523 | 8.30749 | 37218 ft | 458 kts | 176° |
| 2026-04-27 04:07 | 48.91986 | 8.32497 | 37211 ft | 463 kts | 174° |
| 2026-04-27 04:07 | 48.85590 | 8.33830 | 37217 ft | 465 kts | 174° |
| 2026-04-27 04:08 | 48.79393 | 8.36570 | 37229 ft | 470 kts | 149° |
| 2026-04-27 04:08 | 48.76798 | 8.39585 | 37202 ft | 472 kts | 133° |
| 2026-04-27 04:08 | 48.74758 | 8.43467 | 37247 ft | 470 kts | 124° |
| 2026-04-27 04:09 | 48.71038 | 8.51555 | 37223 ft | 471 kts | 124° |
| 2026-04-27 04:09 | 48.67277 | 8.59688 | 37207 ft | 471 kts | 124° |
| 2026-04-27 04:10 | 48.63469 | 8.67745 | 37215 ft | 470 kts | 125° |
| 2026-04-27 04:10 | 48.59648 | 8.75740 | 37220 ft | 469 kts | 125° |
| 2026-04-27 04:11 | 48.55851 | 8.83655 | 37216 ft | 467 kts | 125° |
| 2026-04-27 04:11 | 48.52070 | 8.91521 | 37219 ft | 465 kts | 125° |
| 2026-04-27 04:12 | 48.48324 | 8.99297 | 37217 ft | 464 kts | 125° |
| 2026-04-27 04:12 | 48.44541 | 9.07126 | 37217 ft | 463 kts | 125° |
| 2026-04-27 04:13 | 48.40745 | 9.14958 | 37214 ft | 462 kts | 126° |
| 2026-04-27 04:13 | 48.36954 | 9.22759 | 37217 ft | 462 kts | 126° |
| 2026-04-27 04:14 | 48.33156 | 9.30552 | 37219 ft | 462 kts | 126° |
| 2026-04-27 04:14 | 48.29355 | 9.38333 | 37213 ft | 462 kts | 126° |
| 2026-04-27 04:15 | 48.25489 | 9.46044 | 37210 ft | 463 kts | 131° |
| 2026-04-27 04:15 | 48.20765 | 9.52588 | 37216 ft | 463 kts | 140° |
| 2026-04-27 04:16 | 48.15829 | 9.58817 | 37218 ft | 464 kts | 140° |
| 2026-04-27 04:16 | 48.10904 | 9.65094 | 37212 ft | 465 kts | 140° |
| 2026-04-27 04:17 | 48.06567 | 9.70672 | 37214 ft | 466 kts | 139° |
| 2026-04-27 04:17 | 48.01650 | 9.77003 | 37213 ft | 467 kts | 139° |
| 2026-04-27 04:18 | 47.96721 | 9.83328 | 37213 ft | 467 kts | 139° |
| 2026-04-27 04:18 | 47.91783 | 9.89645 | 37211 ft | 468 kts | 140° |
| 2026-04-27 04:19 | 47.86847 | 9.95945 | 37219 ft | 467 kts | 140° |
| 2026-04-27 04:19 | 47.81855 | 10.02122 | 37218 ft | 466 kts | 143° |
| 2026-04-27 04:20 | 47.76652 | 10.07858 | 37216 ft | 465 kts | 144° |
| 2026-04-27 04:20 | 47.71462 | 10.13489 | 37214 ft | 465 kts | 144° |
| 2026-04-27 04:21 | 47.66268 | 10.19192 | 37212 ft | 464 kts | 143° |
| 2026-04-27 04:21 | 47.61094 | 10.24894 | 37209 ft | 463 kts | 143° |
| 2026-04-27 04:22 | 47.55928 | 10.30567 | 37210 ft | 462 kts | 143° |
| 2026-04-27 04:22 | 47.50765 | 10.36227 | 37197 ft | 462 kts | 143° |
| 2026-04-27 04:23 | 47.45606 | 10.41876 | 37200 ft | 461 kts | 143° |
| 2026-04-27 04:23 | 47.40449 | 10.47498 | 37188 ft | 461 kts | 145° |
| 2026-04-27 04:24 | 47.34899 | 10.52214 | 37194 ft | 460 kts | 153° |
| 2026-04-27 04:24 | 47.29219 | 10.56590 | 37180 ft | 461 kts | 152° |
| 2026-04-27 04:25 | 47.23563 | 10.61056 | 37174 ft | 461 kts | 152° |
| 2026-04-27 04:25 | 47.17898 | 10.65494 | 37169 ft | 462 kts | 153° |
| 2026-04-27 04:26 | 47.11967 | 10.69066 | 37185 ft | 460 kts | 162° |
| 2026-04-27 04:26 | 47.05931 | 10.72228 | 37174 ft | 461 kts | 159° |
| 2026-04-27 04:27 | 47.03056 | 10.74330 | 37150 ft | 462 kts | 148° |
| 2026-04-27 04:27 | 47.00440 | 10.77047 | 37174 ft | 462 kts | 140° |
| 2026-04-27 04:27 | 46.95943 | 10.83758 | 37170 ft | 461 kts | 132° |
| 2026-04-27 04:28 | 46.91570 | 10.90635 | 37148 ft | 462 kts | 133° |
| 2026-04-27 04:28 | 46.87141 | 10.97450 | 37164 ft | 462 kts | 133° |
| 2026-04-27 04:29 | 46.82687 | 11.04237 | 37151 ft | 463 kts | 133° |
| 2026-04-27 04:29 | 46.78058 | 11.10739 | 37167 ft | 461 kts | 138° |
| 2026-04-27 04:30 | 46.73226 | 11.16905 | 37140 ft | 461 kts | 139° |
| 2026-04-27 04:30 | 46.68392 | 11.23031 | 37149 ft | 461 kts | 139° |
| 2026-04-27 04:31 | 46.63578 | 11.29181 | 37141 ft | 460 kts | 139° |
| 2026-04-27 04:31 | 46.58776 | 11.35337 | 37164 ft | 460 kts | 139° |
| 2026-04-27 04:32 | 46.53970 | 11.41491 | 37166 ft | 460 kts | 139° |
| 2026-04-27 04:32 | 46.49198 | 11.47586 | 37169 ft | 460 kts | 139° |
| 2026-04-27 04:33 | 46.44385 | 11.53716 | 37150 ft | 460 kts | 139° |
| 2026-04-27 04:33 | 46.39567 | 11.59838 | 37150 ft | 461 kts | 139° |
| 2026-04-27 04:34 | 46.34735 | 11.65962 | 37156 ft | 462 kts | 138° |
| 2026-04-27 04:34 | 46.29891 | 11.72085 | 37159 ft | 463 kts | 138° |
| 2026-04-27 04:35 | 46.25028 | 11.78218 | 37145 ft | 465 kts | 138° |
| 2026-04-27 04:35 | 46.20152 | 11.84352 | 37152 ft | 465 kts | 138° |
| 2026-04-27 04:36 | 46.15261 | 11.90490 | 37160 ft | 466 kts | 138° |
| 2026-04-27 04:36 | 46.10356 | 11.96631 | 37147 ft | 467 kts | 139° |
| 2026-04-27 04:37 | 46.05441 | 12.02770 | 37151 ft | 468 kts | 139° |
| 2026-04-27 04:37 | 46.00518 | 12.08902 | 37146 ft | 468 kts | 139° |
| 2026-04-27 04:38 | 45.95585 | 12.15033 | 37139 ft | 469 kts | 139° |
| 2026-04-27 04:38 | 45.90651 | 12.21149 | 37140 ft | 469 kts | 139° |
| 2026-04-27 04:39 | 45.85712 | 12.27257 | 37149 ft | 468 kts | 139° |
| 2026-04-27 04:39 | 45.80777 | 12.33346 | 37149 ft | 468 kts | 139° |
| 2026-04-27 04:40 | 45.75838 | 12.39424 | 37148 ft | 467 kts | 139° |
| 2026-04-27 04:40 | 45.71740 | 12.44457 | 37143 ft | 467 kts | 139° |
| 2026-04-27 04:41 | 45.66812 | 12.50495 | 37130 ft | 466 kts | 139° |
| 2026-04-27 04:41 | 45.61883 | 12.56520 | 37127 ft | 466 kts | 139° |
| 2026-04-27 04:42 | 45.56960 | 12.62524 | 37128 ft | 465 kts | 140° |
| 2026-04-27 04:42 | 45.52037 | 12.68512 | 37132 ft | 465 kts | 140° |
| 2026-04-27 04:43 | 45.47116 | 12.74485 | 37127 ft | 464 kts | 140° |
| 2026-04-27 04:43 | 45.42202 | 12.80436 | 37129 ft | 463 kts | 140° |
| 2026-04-27 04:44 | 45.37288 | 12.86372 | 37126 ft | 463 kts | 140° |
| 2026-04-27 04:44 | 45.32379 | 12.92291 | 37128 ft | 463 kts | 140° |
| 2026-04-27 04:45 | 45.27488 | 12.98232 | 37123 ft | 463 kts | 136° |
| 2026-04-27 04:45 | 45.23476 | 13.05338 | 37139 ft | 462 kts | 123° |
| 2026-04-27 04:46 | 45.19986 | 13.13008 | 37128 ft | 463 kts | 122° |
| 2026-04-27 04:46 | 45.16494 | 13.20678 | 37128 ft | 464 kts | 123° |
| 2026-04-27 04:47 | 45.12957 | 13.28330 | 37128 ft | 465 kts | 123° |
| 2026-04-27 04:47 | 45.09390 | 13.35974 | 37124 ft | 465 kts | 123° |
| 2026-04-27 04:48 | 45.05810 | 13.43612 | 37124 ft | 466 kts | 123° |
| 2026-04-27 04:48 | 45.02382 | 13.50909 | 37130 ft | 467 kts | 124° |
| 2026-04-27 04:49 | 44.98782 | 13.58553 | 37126 ft | 468 kts | 124° |
| 2026-04-27 04:49 | 44.95178 | 13.66188 | 37128 ft | 468 kts | 124° |
| 2026-04-27 04:50 | 44.91550 | 13.73854 | 37130 ft | 469 kts | 124° |
| 2026-04-27 04:50 | 44.87924 | 13.81494 | 37131 ft | 469 kts | 124° |
| 2026-04-27 04:51 | 44.84287 | 13.89137 | 37137 ft | 469 kts | 124° |
| 2026-04-27 04:51 | 44.80643 | 13.96775 | 37140 ft | 470 kts | 124° |
| 2026-04-27 04:52 | 44.76988 | 14.04414 | 37124 ft | 470 kts | 125° |
| 2026-04-27 04:52 | 44.73335 | 14.12031 | 37129 ft | 469 kts | 125° |
| 2026-04-27 04:53 | 44.69679 | 14.19632 | 37126 ft | 469 kts | 125° |
| 2026-04-27 04:53 | 44.66049 | 14.27159 | 37128 ft | 468 kts | 125° |
| 2026-04-27 04:54 | 44.62393 | 14.34722 | 37120 ft | 468 kts | 125° |
| 2026-04-27 04:54 | 44.58735 | 14.42268 | 37133 ft | 467 kts | 126° |
| 2026-04-27 04:55 | 44.55073 | 14.49803 | 37120 ft | 467 kts | 126° |
| 2026-04-27 04:55 | 44.51407 | 14.57327 | 37125 ft | 467 kts | 126° |
| 2026-04-27 04:56 | 44.47737 | 14.64838 | 37124 ft | 467 kts | 126° |
| 2026-04-27 04:56 | 44.44061 | 14.72343 | 37125 ft | 467 kts | 126° |
| 2026-04-27 04:57 | 44.40382 | 14.79835 | 37134 ft | 467 kts | 126° |
| 2026-04-27 04:57 | 44.36693 | 14.87326 | 37132 ft | 468 kts | 126° |
| 2026-04-27 04:58 | 44.33001 | 14.94807 | 37131 ft | 468 kts | 126° |
| 2026-04-27 04:58 | 44.29299 | 15.02286 | 37130 ft | 468 kts | 126° |
| 2026-04-27 04:59 | 44.25596 | 15.09749 | 37132 ft | 468 kts | 126° |
| 2026-04-27 04:59 | 44.21885 | 15.17208 | 37135 ft | 468 kts | 126° |
| 2026-04-27 05:00 | 44.18171 | 15.24656 | 37128 ft | 468 kts | 126° |
| 2026-04-27 05:00 | 44.14449 | 15.32100 | 37129 ft | 468 kts | 126° |
| 2026-04-27 05:01 | 44.10723 | 15.39532 | 37127 ft | 468 kts | 126° |
| 2026-04-27 05:01 | 44.06997 | 15.46946 | 37123 ft | 467 kts | 126° |
| 2026-04-27 05:02 | 44.03271 | 15.54340 | 37131 ft | 467 kts | 126° |
| 2026-04-27 05:03 | 43.97679 | 15.65403 | 37128 ft | 466 kts | 126° |
| 2026-04-27 05:03 | 43.93952 | 15.72754 | 37127 ft | 466 kts | 126° |
| 2026-04-27 05:04 | 43.90224 | 15.80088 | 37129 ft | 465 kts | 126° |
| 2026-04-27 05:04 | 43.86493 | 15.87410 | 37123 ft | 465 kts | 126° |
| 2026-04-27 05:05 | 43.82786 | 15.94665 | 37127 ft | 464 kts | 126° |
| 2026-04-27 05:05 | 43.79050 | 16.01958 | 37129 ft | 464 kts | 126° |
| 2026-04-27 05:06 | 43.75314 | 16.09236 | 37119 ft | 464 kts | 126° |
| 2026-04-27 05:06 | 43.71572 | 16.16506 | 37124 ft | 464 kts | 126° |
| 2026-04-27 05:07 | 43.67828 | 16.23761 | 37137 ft | 464 kts | 126° |
| 2026-04-27 05:07 | 43.64073 | 16.31021 | 37126 ft | 464 kts | 126° |
| 2026-04-27 05:08 | 43.60315 | 16.38269 | 37148 ft | 465 kts | 126° |
| 2026-04-27 05:08 | 43.56547 | 16.45517 | 37126 ft | 465 kts | 126° |
| 2026-04-27 05:09 | 43.52775 | 16.52754 | 37134 ft | 465 kts | 126° |
| 2026-04-27 05:09 | 43.48993 | 16.59995 | 37125 ft | 466 kts | 127° |
| 2026-04-27 05:10 | 43.45207 | 16.67225 | 37124 ft | 466 kts | 127° |
| 2026-04-27 05:10 | 43.41417 | 16.74445 | 37144 ft | 466 kts | 127° |
| 2026-04-27 05:11 | 43.37619 | 16.81661 | 37151 ft | 465 kts | 127° |
| 2026-04-27 05:11 | 43.33848 | 16.88810 | 37141 ft | 465 kts | 127° |
| 2026-04-27 05:12 | 43.30051 | 16.95991 | 37151 ft | 464 kts | 127° |
| 2026-04-27 05:12 | 43.26254 | 17.03153 | 37150 ft | 464 kts | 127° |
| 2026-04-27 05:13 | 43.22458 | 17.10296 | 37148 ft | 463 kts | 127° |
| 2026-04-27 05:13 | 43.18658 | 17.17431 | 37150 ft | 464 kts | 127° |
| 2026-04-27 05:14 | 43.14848 | 17.24564 | 37135 ft | 464 kts | 127° |
| 2026-04-27 05:14 | 43.11042 | 17.31677 | 37142 ft | 463 kts | 127° |
| 2026-04-27 05:15 | 43.07238 | 17.38768 | 37157 ft | 462 kts | 127° |
| 2026-04-27 05:15 | 43.03428 | 17.45851 | 37141 ft | 462 kts | 127° |
| 2026-04-27 05:16 | 42.99617 | 17.52920 | 37156 ft | 462 kts | 127° |
| 2026-04-27 05:16 | 42.95806 | 17.59973 | 37143 ft | 462 kts | 127° |
| 2026-04-27 05:17 | 42.91990 | 17.67019 | 37149 ft | 461 kts | 127° |
| 2026-04-27 05:17 | 42.88170 | 17.74053 | 37149 ft | 461 kts | 127° |
| 2026-04-27 05:18 | 42.84492 | 17.80813 | 37147 ft | 461 kts | 127° |
| 2026-04-27 05:18 | 42.80743 | 17.87689 | 37148 ft | 444 kts | 128° |
| 2026-04-27 05:19 | 42.77016 | 17.94504 | 37156 ft | 453 kts | 128° |
| 2026-04-27 05:19 | 42.73211 | 18.01447 | 37152 ft | 462 kts | 128° |
| 2026-04-27 05:20 | 42.69346 | 18.08486 | 37138 ft | 466 kts | 128° |
| 2026-04-27 05:20 | 42.65448 | 18.15572 | 37135 ft | 468 kts | 128° |
| 2026-04-27 05:21 | 42.61372 | 18.22338 | 37117 ft | 457 kts | 140° |
| 2026-04-27 05:21 | 42.56168 | 18.26989 | 37128 ft | 450 kts | 160° |
| 2026-04-27 05:22 | 42.50240 | 18.29860 | 37124 ft | 450 kts | 164° |
| 2026-04-27 05:22 | 42.44337 | 18.32572 | 37136 ft | 452 kts | 164° |
| 2026-04-27 05:23 | 42.38348 | 18.35371 | 37130 ft | 453 kts | 163° |
| 2026-04-27 05:23 | 42.32434 | 18.38171 | 37133 ft | 454 kts | 163° |
| 2026-04-27 05:24 | 42.26478 | 18.40999 | 37131 ft | 454 kts | 163° |
| 2026-04-27 05:24 | 42.20522 | 18.43821 | 37131 ft | 453 kts | 163° |
| 2026-04-27 05:25 | 42.14582 | 18.46629 | 37128 ft | 452 kts | 163° |
| 2026-04-27 05:25 | 42.08641 | 18.49430 | 37128 ft | 451 kts | 163° |
| 2026-04-27 05:26 | 42.02722 | 18.52216 | 37133 ft | 450 kts | 163° |
| 2026-04-27 05:26 | 41.96815 | 18.54989 | 37133 ft | 449 kts | 164° |
| 2026-04-27 05:27 | 41.91114 | 18.57661 | 37140 ft | 449 kts | 164° |
| 2026-04-27 05:27 | 41.85223 | 18.60417 | 37135 ft | 448 kts | 164° |
| 2026-04-27 05:28 | 41.79332 | 18.63168 | 37136 ft | 448 kts | 164° |
| 2026-04-27 05:28 | 41.74436 | 18.65450 | 37134 ft | 448 kts | 164° |
| 2026-04-27 05:29 | 41.68538 | 18.68194 | 37134 ft | 449 kts | 164° |
| 2026-04-27 05:29 | 41.62633 | 18.70936 | 37133 ft | 450 kts | 164° |
| 2026-04-27 05:30 | 41.56713 | 18.73679 | 37135 ft | 450 kts | 164° |
| 2026-04-27 05:30 | 41.50789 | 18.76419 | 37134 ft | 451 kts | 164° |
| 2026-04-27 05:31 | 41.44851 | 18.79161 | 37134 ft | 452 kts | 164° |
| 2026-04-27 05:31 | 41.38901 | 18.81903 | 37132 ft | 453 kts | 164° |
| 2026-04-27 05:32 | 41.32940 | 18.84644 | 37133 ft | 453 kts | 164° |
| 2026-04-27 05:32 | 41.26978 | 18.87382 | 37130 ft | 454 kts | 164° |
| 2026-04-27 05:33 | 41.21003 | 18.90120 | 37131 ft | 454 kts | 163° |
| 2026-04-27 05:33 | 41.15267 | 18.93679 | 37143 ft | 457 kts | 153° |
| 2026-04-27 05:34 | 41.09763 | 18.97816 | 37130 ft | 458 kts | 153° |
| 2026-04-27 05:34 | 41.04222 | 19.01983 | 37127 ft | 458 kts | 153° |
| 2026-04-27 05:35 | 40.98665 | 19.06097 | 37127 ft | 457 kts | 153° |
| 2026-04-27 05:35 | 40.93101 | 19.10181 | 37127 ft | 457 kts | 153° |
| 2026-04-27 05:36 | 40.87541 | 19.14248 | 37124 ft | 457 kts | 153° |
| 2026-04-27 05:36 | 40.81975 | 19.18312 | 37122 ft | 457 kts | 153° |
| 2026-04-27 05:37 | 40.76413 | 19.22368 | 37120 ft | 457 kts | 153° |
| 2026-04-27 05:37 | 40.70852 | 19.26414 | 37119 ft | 456 kts | 153° |
| 2026-04-27 05:38 | 40.65289 | 19.30455 | 37116 ft | 456 kts | 154° |
| 2026-04-27 05:38 | 40.59731 | 19.34485 | 37116 ft | 456 kts | 153° |
| 2026-04-27 05:39 | 40.54167 | 19.38510 | 37117 ft | 456 kts | 154° |
| 2026-04-27 05:39 | 40.48598 | 19.42532 | 37111 ft | 457 kts | 154° |
| 2026-04-27 05:40 | 40.43030 | 19.46546 | 37113 ft | 457 kts | 154° |
| 2026-04-27 05:40 | 40.37459 | 19.50555 | 37115 ft | 457 kts | 154° |
| 2026-04-27 05:41 | 40.31872 | 19.54566 | 37113 ft | 458 kts | 154° |
| 2026-04-27 05:41 | 40.26278 | 19.58576 | 37098 ft | 459 kts | 154° |
| 2026-04-27 05:42 | 40.20681 | 19.62581 | 37103 ft | 458 kts | 154° |
| 2026-04-27 05:42 | 40.15094 | 19.66569 | 37097 ft | 458 kts | 154° |
| 2026-04-27 05:43 | 40.09506 | 19.70552 | 37096 ft | 457 kts | 154° |
| 2026-04-27 05:43 | 40.03924 | 19.74523 | 37097 ft | 456 kts | 154° |
| 2026-04-27 05:44 | 39.98507 | 19.78371 | 37100 ft | 456 kts | 154° |
| 2026-04-27 05:44 | 39.92944 | 19.82314 | 37085 ft | 455 kts | 154° |
| 2026-04-27 05:45 | 39.87277 | 19.85952 | 37101 ft | 452 kts | 160° |
| 2026-04-27 05:45 | 39.81439 | 19.88848 | 37104 ft | 452 kts | 162° |
| 2026-04-27 05:46 | 39.75554 | 19.91710 | 37105 ft | 452 kts | 161° |
| 2026-04-27 05:46 | 39.69678 | 19.94635 | 37102 ft | 452 kts | 161° |
| 2026-04-27 05:47 | 39.63814 | 19.97582 | 37101 ft | 452 kts | 161° |
| 2026-04-27 05:47 | 39.57942 | 20.00529 | 37100 ft | 452 kts | 161° |
| 2026-04-27 05:48 | 39.52069 | 20.03470 | 37102 ft | 453 kts | 161° |
| 2026-04-27 05:48 | 39.46202 | 20.06426 | 37097 ft | 454 kts | 158° |
| 2026-04-27 05:49 | 39.40842 | 20.10758 | 37109 ft | 457 kts | 143° |
| 2026-04-27 05:49 | 39.35919 | 20.15975 | 37109 ft | 458 kts | 142° |
| 2026-04-27 05:50 | 39.30975 | 20.21165 | 37117 ft | 458 kts | 143° |
| 2026-04-27 05:50 | 39.25993 | 20.26300 | 37117 ft | 458 kts | 143° |
| 2026-04-27 05:51 | 39.21002 | 20.31426 | 37123 ft | 459 kts | 143° |
| 2026-04-27 05:51 | 39.16016 | 20.36569 | 37129 ft | 459 kts | 143° |
| 2026-04-27 05:52 | 39.11030 | 20.41713 | 37131 ft | 459 kts | 143° |
| 2026-04-27 05:52 | 39.06036 | 20.46850 | 37130 ft | 459 kts | 143° |
| 2026-04-27 05:53 | 39.01006 | 20.51912 | 37131 ft | 459 kts | 144° |
| 2026-04-27 05:53 | 38.95942 | 20.56921 | 37130 ft | 459 kts | 143° |
| 2026-04-27 05:54 | 38.90889 | 20.61935 | 37130 ft | 459 kts | 143° |
| 2026-04-27 05:54 | 38.85845 | 20.66958 | 37128 ft | 459 kts | 143° |
| 2026-04-27 05:55 | 38.80861 | 20.72081 | 37136 ft | 459 kts | 142° |
| 2026-04-27 05:55 | 38.75891 | 20.77218 | 37131 ft | 459 kts | 142° |
| 2026-04-27 05:56 | 38.70911 | 20.82332 | 37126 ft | 459 kts | 142° |
| 2026-04-27 05:56 | 38.65926 | 20.87434 | 37127 ft | 459 kts | 142° |
| 2026-04-27 05:57 | 38.60944 | 20.92522 | 37137 ft | 459 kts | 142° |
| 2026-04-27 05:57 | 38.56023 | 20.97729 | 37123 ft | 459 kts | 140° |
| 2026-04-27 05:58 | 38.51265 | 21.03174 | 37137 ft | 459 kts | 139° |
| 2026-04-27 05:58 | 38.46502 | 21.08626 | 37128 ft | 460 kts | 139° |
| 2026-04-27 05:59 | 38.41717 | 21.14033 | 37134 ft | 460 kts | 140° |
| 2026-04-27 05:59 | 38.36911 | 21.19426 | 37123 ft | 460 kts | 140° |
| 2026-04-27 06:00 | 38.29693 | 21.27508 | 37125 ft | 461 kts | 140° |
| 2026-04-27 06:00 | 38.24876 | 21.32891 | 37128 ft | 461 kts | 140° |
| 2026-04-27 06:01 | 38.20060 | 21.38265 | 37132 ft | 461 kts | 140° |
| 2026-04-27 06:01 | 38.15238 | 21.43641 | 37122 ft | 461 kts | 139° |
| 2026-04-27 06:02 | 38.10572 | 21.49239 | 37133 ft | 462 kts | 136° |
| 2026-04-27 06:02 | 38.05973 | 21.54953 | 37140 ft | 463 kts | 136° |
| 2026-04-27 06:03 | 38.01382 | 21.60610 | 37133 ft | 464 kts | 137° |
| 2026-04-27 06:03 | 37.96733 | 21.66281 | 37123 ft | 464 kts | 137° |
| 2026-04-27 06:04 | 37.92070 | 21.71941 | 37132 ft | 464 kts | 137° |
| 2026-04-27 06:04 | 37.87400 | 21.77598 | 37134 ft | 464 kts | 137° |
| 2026-04-27 06:05 | 37.82734 | 21.83243 | 37130 ft | 464 kts | 137° |
| 2026-04-27 06:05 | 37.78067 | 21.88879 | 37123 ft | 463 kts | 137° |
| 2026-04-27 06:06 | 37.73403 | 21.94501 | 37126 ft | 464 kts | 137° |
| 2026-04-27 06:06 | 37.68733 | 22.00120 | 37128 ft | 464 kts | 137° |
| 2026-04-27 06:07 | 37.64061 | 22.05730 | 37130 ft | 464 kts | 137° |
| 2026-04-27 06:07 | 37.59388 | 22.11334 | 37129 ft | 463 kts | 137° |
| 2026-04-27 06:08 | 37.54714 | 22.16928 | 37130 ft | 463 kts | 137° |
| 2026-04-27 06:08 | 37.50040 | 22.22512 | 37129 ft | 463 kts | 137° |
| 2026-04-27 06:09 | 37.45367 | 22.28085 | 37137 ft | 463 kts | 138° |
| 2026-04-27 06:09 | 37.40688 | 22.33653 | 37130 ft | 463 kts | 139° |
| 2026-04-27 06:10 | 37.35768 | 22.38856 | 37132 ft | 462 kts | 143° |
| 2026-04-27 06:10 | 37.30706 | 22.43844 | 37118 ft | 462 kts | 143° |
| 2026-04-27 06:11 | 37.25644 | 22.48838 | 37116 ft | 463 kts | 143° |
| 2026-04-27 06:11 | 37.20599 | 22.53866 | 37114 ft | 463 kts | 143° |
| 2026-04-27 06:12 | 37.15596 | 22.58867 | 37104 ft | 457 kts | 143° |
| 2026-04-27 06:12 | 37.11435 | 22.63024 | 37047 ft | 457 kts | 143° |
| 2026-04-27 06:13 | 37.08980 | 22.65473 | 36695 ft | 455 kts | 143° |
| 2026-04-27 06:13 | 37.06523 | 22.67921 | 36355 ft | 449 kts | 143° |
| 2026-04-27 06:13 | 37.04086 | 22.70348 | 35976 ft | 446 kts | 143° |
| 2026-04-27 06:13 | 37.01665 | 22.72757 | 35591 ft | 443 kts | 143° |
| 2026-04-27 06:14 | 36.99261 | 22.75145 | 35204 ft | 440 kts | 144° |
| 2026-04-27 06:14 | 36.96870 | 22.77519 | 34822 ft | 437 kts | 144° |
| 2026-04-27 06:14 | 36.94492 | 22.79877 | 34444 ft | 435 kts | 144° |
| 2026-04-27 06:14 | 36.92128 | 22.82220 | 34053 ft | 433 kts | 144° |
| 2026-04-27 06:15 | 36.89772 | 22.84553 | 33612 ft | 431 kts | 144° |
| 2026-04-27 06:15 | 36.87429 | 22.86871 | 33210 ft | 428 kts | 144° |
| 2026-04-27 06:15 | 36.85102 | 22.89172 | 32813 ft | 426 kts | 144° |
| 2026-04-27 06:15 | 36.82787 | 22.91459 | 32433 ft | 423 kts | 144° |
| 2026-04-27 06:16 | 36.80489 | 22.93728 | 32069 ft | 420 kts | 144° |
| 2026-04-27 06:16 | 36.78206 | 22.95979 | 31696 ft | 417 kts | 144° |
| 2026-04-27 06:16 | 36.75935 | 22.98217 | 31330 ft | 414 kts | 144° |
| 2026-04-27 06:16 | 36.73681 | 23.00437 | 30963 ft | 412 kts | 144° |
| 2026-04-27 06:17 | 36.71440 | 23.02642 | 30619 ft | 409 kts | 144° |
| 2026-04-27 06:17 | 36.69214 | 23.04832 | 30260 ft | 407 kts | 144° |
| 2026-04-27 06:17 | 36.66997 | 23.07011 | 29858 ft | 404 kts | 144° |
| 2026-04-27 06:17 | 36.64799 | 23.09168 | 29460 ft | 401 kts | 144° |
| 2026-04-27 06:18 | 36.62620 | 23.11307 | 29085 ft | 397 kts | 144° |
| 2026-04-27 06:18 | 36.60459 | 23.13426 | 28715 ft | 393 kts | 144° |
| 2026-04-27 06:18 | 36.58319 | 23.15523 | 28337 ft | 390 kts | 144° |
| 2026-04-27 06:18 | 36.56195 | 23.17601 | 27977 ft | 387 kts | 144° |
| 2026-04-27 06:19 | 36.54085 | 23.19666 | 27615 ft | 384 kts | 144° |
| 2026-04-27 06:19 | 36.51994 | 23.21709 | 27254 ft | 381 kts | 144° |
| 2026-04-27 06:19 | 36.49920 | 23.23736 | 26900 ft | 378 kts | 144° |
| 2026-04-27 06:19 | 36.47855 | 23.25752 | 26539 ft | 376 kts | 144° |
| 2026-04-27 06:20 | 36.45807 | 23.27750 | 26204 ft | 373 kts | 144° |
| 2026-04-27 06:20 | 36.43771 | 23.29734 | 25857 ft | 371 kts | 144° |
| 2026-04-27 06:20 | 36.41775 | 23.31679 | 25518 ft | 369 kts | 144° |
| 2026-04-27 06:20 | 36.39761 | 23.33640 | 25172 ft | 367 kts | 144° |
| 2026-04-27 06:21 | 36.37758 | 23.35589 | 24829 ft | 365 kts | 144° |
| 2026-04-27 06:21 | 36.35765 | 23.37526 | 24488 ft | 363 kts | 144° |
| 2026-04-27 06:21 | 36.33783 | 23.39452 | 24152 ft | 361 kts | 144° |
| 2026-04-27 06:21 | 36.31808 | 23.41371 | 23811 ft | 360 kts | 143° |
| 2026-04-27 06:22 | 36.29839 | 23.43283 | 23429 ft | 359 kts | 143° |
| 2026-04-27 06:22 | 36.27881 | 23.45181 | 23050 ft | 357 kts | 143° |
| 2026-04-27 06:22 | 36.25927 | 23.47074 | 22684 ft | 355 kts | 143° |
| 2026-04-27 06:22 | 36.23993 | 23.48946 | 22406 ft | 351 kts | 143° |
| 2026-04-27 06:23 | 36.22073 | 23.50800 | 22139 ft | 349 kts | 143° |
| 2026-04-27 06:23 | 36.20164 | 23.52643 | 21886 ft | 346 kts | 143° |
| 2026-04-27 06:23 | 36.18276 | 23.54465 | 21605 ft | 343 kts | 143° |
| 2026-04-27 06:23 | 36.16400 | 23.56274 | 21277 ft | 341 kts | 143° |
| 2026-04-27 06:24 | 36.14537 | 23.58071 | 20954 ft | 339 kts | 143° |
| 2026-04-27 06:24 | 36.12678 | 23.59861 | 20623 ft | 338 kts | 143° |
| 2026-04-27 06:24 | 36.10830 | 23.61641 | 20297 ft | 336 kts | 143° |
| 2026-04-27 06:24 | 36.08987 | 23.63414 | 19969 ft | 335 kts | 143° |
| 2026-04-27 06:25 | 36.07151 | 23.65181 | 19645 ft | 334 kts | 143° |
| 2026-04-27 06:25 | 36.05320 | 23.66942 | 19315 ft | 333 kts | 143° |
| 2026-04-27 06:25 | 36.03491 | 23.68700 | 18990 ft | 332 kts | 143° |
| 2026-04-27 06:25 | 36.01669 | 23.70449 | 18664 ft | 332 kts | 142° |
| 2026-04-27 06:26 | 35.99844 | 23.72199 | 18318 ft | 332 kts | 142° |
| 2026-04-27 06:26 | 35.98019 | 23.73950 | 17865 ft | 334 kts | 142° |
| 2026-04-27 06:26 | 35.96189 | 23.75704 | 17520 ft | 332 kts | 142° |
| 2026-04-27 06:26 | 35.94368 | 23.77449 | 17172 ft | 331 kts | 142° |
| 2026-04-27 06:27 | 35.92554 | 23.79187 | 16832 ft | 329 kts | 142° |
| 2026-04-27 06:27 | 35.90750 | 23.80915 | 16511 ft | 328 kts | 142° |
| 2026-04-27 06:27 | 35.88953 | 23.82634 | 16189 ft | 326 kts | 142° |
| 2026-04-27 06:27 | 35.87167 | 23.84343 | 15862 ft | 325 kts | 142° |
| 2026-04-27 06:28 | 35.85386 | 23.86046 | 15542 ft | 323 kts | 142° |
| 2026-04-27 06:28 | 35.83613 | 23.87741 | 15226 ft | 322 kts | 142° |
| 2026-04-27 06:28 | 35.81845 | 23.89430 | 14910 ft | 321 kts | 142° |
| 2026-04-27 06:28 | 35.80088 | 23.91107 | 14592 ft | 320 kts | 142° |
| 2026-04-27 06:29 | 35.78333 | 23.92780 | 14278 ft | 319 kts | 142° |
| 2026-04-27 06:29 | 35.76650 | 23.94492 | 13942 ft | 317 kts | 130° |
| 2026-04-27 06:29 | 35.75671 | 23.96865 | 13574 ft | 311 kts | 97° |
| 2026-04-27 06:29 | 35.75841 | 23.99450 | 13263 ft | 302 kts | 65° |
| 2026-04-27 06:30 | 35.77030 | 24.01489 | 13033 ft | 292 kts | 44° |
| 2026-04-27 06:30 | 35.78324 | 24.03407 | 12710 ft | 292 kts | 56° |
| 2026-04-27 06:30 | 35.79212 | 24.05658 | 12407 ft | 293 kts | 69° |
| 2026-04-27 06:30 | 35.79755 | 24.08072 | 12113 ft | 293 kts | 76° |
| 2026-04-27 06:31 | 35.80122 | 24.10538 | 11815 ft | 292 kts | 79° |
| 2026-04-27 06:31 | 35.80408 | 24.13012 | 11507 ft | 291 kts | 81° |
| 2026-04-27 06:31 | 35.80589 | 24.15492 | 11209 ft | 291 kts | 85° |
| 2026-04-27 06:31 | 35.80634 | 24.17984 | 10915 ft | 291 kts | 89° |
| 2026-04-27 06:32 | 35.80537 | 24.20469 | 10616 ft | 290 kts | 93° |
| 2026-04-27 06:32 | 35.80317 | 24.22940 | 10313 ft | 290 kts | 97° |
| 2026-04-27 06:32 | 35.79961 | 24.25359 | 10176 ft | 284 kts | 101° |
| 2026-04-27 06:32 | 35.79425 | 24.27683 | 9929 ft | 282 kts | 108° |
| 2026-04-27 06:33 | 35.78733 | 24.29939 | 9630 ft | 281 kts | 111° |
| 2026-04-27 06:33 | 35.77932 | 24.32135 | 9343 ft | 281 kts | 115° |
| 2026-04-27 06:33 | 35.77039 | 24.34265 | 9057 ft | 280 kts | 118° |
| 2026-04-27 06:33 | 35.76041 | 24.36319 | 8763 ft | 279 kts | 122° |
| 2026-04-27 06:34 | 35.74935 | 24.38279 | 8429 ft | 280 kts | 126° |
| 2026-04-27 06:34 | 35.73715 | 24.40152 | 8034 ft | 283 kts | 130° |
| 2026-04-27 06:34 | 35.72370 | 24.41942 | 7677 ft | 285 kts | 134° |
| 2026-04-27 06:34 | 35.70931 | 24.43608 | 7373 ft | 284 kts | 139° |
| 2026-04-27 06:35 | 35.69402 | 24.45145 | 7077 ft | 283 kts | 142° |
| 2026-04-27 06:35 | 35.67809 | 24.46562 | 6781 ft | 282 kts | 146° |
| 2026-04-27 06:35 | 35.66147 | 24.47837 | 6493 ft | 281 kts | 152° |
| 2026-04-27 06:35 | 35.64295 | 24.48527 | 6167 ft | 280 kts | 177° |
| 2026-04-27 06:36 | 35.62393 | 24.48211 | 5891 ft | 276 kts | 199° |
| 2026-04-27 06:36 | 35.60614 | 24.47360 | 5612 ft | 274 kts | 203° |
| 2026-04-27 06:36 | 35.58856 | 24.46457 | 5319 ft | 273 kts | 203° |
| 2026-04-27 06:36 | 35.57111 | 24.45557 | 5035 ft | 272 kts | 203° |
| 2026-04-27 06:37 | 35.55366 | 24.44667 | 4774 ft | 270 kts | 202° |
| 2026-04-27 06:37 | 35.53654 | 24.43803 | 4647 ft | 262 kts | 202° |
| 2026-04-27 06:37 | 35.51989 | 24.42969 | 4525 ft | 255 kts | 202° |
| 2026-04-27 06:37 | 35.50371 | 24.42162 | 4413 ft | 248 kts | 202° |
| 2026-04-27 06:38 | 35.48794 | 24.41377 | 4298 ft | 240 kts | 202° |
| 2026-04-27 06:38 | 35.47295 | 24.40536 | 4129 ft | 235 kts | 218° |
| 2026-04-27 06:38 | 35.46422 | 24.38983 | 4103 ft | 217 kts | 258° |
| 2026-04-27 06:38 | 35.46469 | 24.37203 | 3902 ft | 206 kts | 281° |
| 2026-04-27 06:39 | 35.46780 | 24.35504 | 3637 ft | 202 kts | 285° |
| 2026-04-27 06:39 | 35.47144 | 24.33857 | 3371 ft | 198 kts | 288° |
| 2026-04-27 06:39 | 35.47593 | 24.32280 | 3105 ft | 194 kts | 291° |
| 2026-04-27 06:39 | 35.48071 | 24.30775 | 2855 ft | 188 kts | 292° |
| 2026-04-27 06:40 | 35.48536 | 24.29333 | 2626 ft | 176 kts | 292° |
| 2026-04-27 06:40 | 35.48979 | 24.27962 | 2384 ft | 165 kts | 292° |
| 2026-04-27 06:40 | 35.49386 | 24.26700 | 2174 ft | 158 kts | 292° |
| 2026-04-27 06:40 | 35.49785 | 24.25462 | 1992 ft | 154 kts | 291° |
| 2026-04-27 06:41 | 35.50176 | 24.24249 | 1775 ft | 150 kts | 291° |
| 2026-04-27 06:41 | 35.50551 | 24.23086 | 1607 ft | 147 kts | 291° |
| 2026-04-27 06:41 | 35.50929 | 24.21914 | 1388 ft | 148 kts | 292° |
| 2026-04-27 06:41 | 35.51312 | 24.20731 | 1194 ft | 152 kts | 291° |
| 2026-04-27 06:42 | 35.51699 | 24.19531 | 1060 ft | 150 kts | 292° |
| 2026-04-27 06:42 | 35.52084 | 24.18343 | 814 ft | 149 kts | 292° |
| 2026-04-27 06:42 | 35.52468 | 24.17163 | 608 ft | 149 kts | 291° |
| 2026-04-27 06:42 | 35.52835 | 24.15996 | 491 ft | 138 kts | 292° |
| 2026-04-27 06:43 | 35.53107 | 24.15198 | 483 ft | 69 kts | 292° |
| 2026-04-27 06:43 | 35.53246 | 24.14762 | 493 ft | 46 kts | 291° |
| 2026-04-27 06:43 | 35.53313 | 24.14550 | 493 ft | 25 kts | 291° |
| 2026-04-27 06:43 | 35.53377 | 24.14367 | 496 ft | 20 kts | 293° |
| 2026-04-27 06:44 | 35.53465 | 24.14278 | 497 ft | 19 kts | 20° |
| 2026-04-27 06:44 | 35.53587 | 24.14333 | 497 ft | 18 kts | 20° |
| 2026-04-27 06:44 | 35.53699 | 24.14332 | 494 ft | 18 kts | 310° |
| 2026-04-27 06:44 | 35.53742 | 24.14194 | 495 ft | 17 kts | 290° |
| 2026-04-27 06:45 | 35.53791 | 24.14083 | 489 ft | 8 kts | 341° |
| 2026-04-27 06:45 | 35.53842 | 24.14100 | 487 ft | 8 kts | 21° |
| 2026-04-27 06:45 | 35.53859 | 24.14109 | 493 ft | 0 kts | 20° |